createdAt,value
2022-10-20T00:01:00.053Z,101396.84
2022-10-20T00:02:18.560Z,101387.91
2022-10-20T00:03:20.584Z,101388.88
2022-10-20T00:04:23.205Z,101380.88
2022-10-20T00:05:24.720Z,101388.88
2022-10-20T00:06:29.603Z,101377.38
2022-10-20T00:07:31.131Z,101368.44
2022-10-20T00:08:33.621Z,101371.09
2022-10-20T00:09:35.178Z,101367.59
2022-10-20T00:10:44.029Z,101363.13
2022-10-20T00:11:46.817Z,101358.66
2022-10-20T00:12:49.682Z,101364.94
2022-10-20T00:13:54.031Z,101359.63
2022-10-20T00:14:55.567Z,101364.06
2022-10-20T00:15:59.961Z,101362.28
2022-10-20T00:17:01.576Z,101367.59
2022-10-20T00:18:04.189Z,101359.63
2022-10-20T00:19:06.005Z,101357.91
2022-10-20T00:20:09.659Z,101351.63
2022-10-20T00:21:14.717Z,101351.63
2022-10-20T00:22:17.221Z,101349.81
2022-10-20T00:23:18.920Z,101341.84
2022-10-20T00:24:21.638Z,101347.16
2022-10-20T00:25:23.187Z,101341.84
2022-10-20T00:26:27.437Z,101338.34
2022-10-20T00:27:28.986Z,101333.88
2022-10-20T00:28:32.982Z,101331.22
2022-10-20T00:29:34.523Z,101325.91
2022-10-20T00:30:37.533Z,101325.03
2022-10-20T00:31:39.362Z,101331.22
2022-10-20T00:32:41.851Z,101333.88
2022-10-20T00:33:43.735Z,101333.88
2022-10-20T00:34:46.208Z,101337.38
2022-10-20T00:35:47.772Z,101333.88
2022-10-20T00:36:51.523Z,101335.69
2022-10-20T00:37:53.283Z,101324.19
2022-10-20T00:38:59.184Z,101340.03
2022-10-20T00:40:00.726Z,101332.06
2022-10-20T00:41:03.807Z,101337.38
2022-10-20T00:42:05.934Z,101332.06
2022-10-20T00:43:11.932Z,101331.06
2022-10-20T00:44:49.466Z,101329.41
2022-10-20T00:45:54.764Z,101325.03
2022-10-20T00:46:58.272Z,101333.16
2022-10-20T00:48:05.298Z,101333.16
2022-10-20T00:49:13.621Z,101328.78
2022-10-20T00:50:17.988Z,101326.97
2022-10-20T00:51:23.400Z,101322.63
2022-10-20T00:52:25.868Z,101309.22
2022-10-20T00:53:29.874Z,101314.66
2022-10-20T00:54:32.161Z,101321.66
2022-10-20T00:55:38.515Z,101311.03
2022-10-20T00:56:44.029Z,101305.72
2022-10-20T00:57:50.534Z,101307.38
2022-10-20T00:58:52.226Z,101303.91
2022-10-20T00:59:56.125Z,101309.22
2022-10-20T01:06:01.865Z,101297.00
2022-10-20T01:07:04.757Z,101290.81
2022-10-20T01:08:07.167Z,101286.34
2022-10-20T01:09:09.952Z,101281.03
2022-10-20T01:10:12.535Z,101283.69
2022-10-20T01:11:20.805Z,101279.38
2022-10-20T01:12:34.437Z,101277.53
2022-10-20T01:13:42.984Z,101280.19
2022-10-20T01:14:53.964Z,101270.41
2022-10-20T01:16:04.669Z,101276.72
2022-10-20T01:17:17.582Z,101275.72
2022-10-20T01:18:28.496Z,101274.03
2022-10-20T01:19:53.625Z,101266.06
2022-10-20T01:21:13.063Z,101268.72
2022-10-20T01:22:35.482Z,101258.09
2022-10-20T01:23:58.603Z,101263.41
2022-10-20T01:25:14.253Z,101268.72
2022-10-20T01:26:39.310Z,101268.72
2022-10-20T01:27:43.914Z,101264.38
2022-10-20T01:28:52.389Z,101254.69
2022-10-20T01:30:01.510Z,101259.03
2022-10-20T01:31:13.219Z,101257.34
2022-10-20T01:32:20.264Z,101256.38
2022-10-20T01:33:31.881Z,101246.00
2022-10-20T01:34:39.588Z,101252.03
2022-10-20T01:35:52.122Z,101260.00
2022-10-20T01:37:00.027Z,101254.81
2022-10-20T01:38:12.825Z,101255.66
2022-10-20T01:39:17.850Z,101248.66
2022-10-20T01:40:27.438Z,101248.66
2022-10-20T01:41:34.211Z,101257.47
2022-10-20T01:42:40.460Z,101251.31
2022-10-20T01:43:46.560Z,101246.84
2022-10-20T01:44:50.920Z,101263.66
2022-10-20T01:45:54.527Z,101258.34
2022-10-20T01:46:59.522Z,101261.94
2022-10-20T01:48:05.330Z,101254.69
2022-10-20T01:49:08.602Z,101249.38
2022-10-20T01:50:12.468Z,101246.84
2022-10-20T01:51:15.003Z,101247.69
2022-10-20T01:52:17.398Z,101245.84
2022-10-20T01:53:20.851Z,101236.94
2022-10-20T01:54:23.579Z,101241.28
2022-10-20T01:55:26.500Z,101234.25
2022-10-20T01:56:38.464Z,101231.59
2022-10-20T01:57:50.570Z,101231.50
2022-10-20T01:59:26.246Z,101224.47
2022-10-20T02:00:27.795Z,101228.09
2022-10-20T02:01:45.551Z,101213.84
2022-10-20T02:03:02.616Z,101210.47
2022-10-20T02:04:08.202Z,101215.66
2022-10-20T02:05:31.243Z,101203.22
2022-10-20T02:06:43.652Z,101211.06
2022-10-20T02:07:45.234Z,101204.91
2022-10-20T02:08:50.581Z,101199.59
2022-10-20T02:10:00.488Z,101198.59
2022-10-20T02:11:06.386Z,101202.13
2022-10-20T02:12:13.448Z,101193.28
2022-10-20T02:13:17.440Z,101202.97
2022-10-20T02:14:22.944Z,101194.28
2022-10-20T02:15:28.482Z,101192.34
2022-10-20T02:16:35.810Z,101179.88
2022-10-20T02:17:40.690Z,101195.69
2022-10-20T02:18:44.205Z,101179.75
2022-10-20T02:19:51.052Z,101178.78
2022-10-20T02:20:55.973Z,101177.84
2022-10-20T02:21:59.016Z,101183.16
2022-10-20T02:23:02.780Z,101177.84
2022-10-20T02:24:08.204Z,101177.84
2022-10-20T02:25:11.102Z,101184.81
2022-10-20T02:26:15.877Z,101184.81
2022-10-20T02:27:22.448Z,101180.34
2022-10-20T02:28:25.848Z,101178.69
2022-10-20T02:29:33.403Z,101178.56
2022-10-20T02:30:37.527Z,101169.84
2022-10-20T02:31:42.228Z,101170.72
2022-10-20T02:32:49.165Z,101168.88
2022-10-20T02:33:52.832Z,101169.72
2022-10-20T02:34:55.282Z,101170.56
2022-10-20T02:35:59.115Z,101175.03
2022-10-20T02:37:02.338Z,101171.41
2022-10-20T02:38:04.117Z,101175.88
2022-10-20T02:39:07.073Z,101173.22
2022-10-20T02:40:09.571Z,101158.22
2022-10-20T02:41:12.138Z,101166.22
2022-10-20T02:42:13.680Z,101161.75
2022-10-20T02:43:16.213Z,101159.09
2022-10-20T02:44:18.003Z,101160.06
2022-10-20T02:45:22.150Z,101157.28
2022-10-20T02:46:24.426Z,101155.56
2022-10-20T02:47:26.978Z,101161.63
2022-10-20T02:48:28.482Z,101157.28
2022-10-20T02:49:30.915Z,101162.59
2022-10-20T02:50:33.596Z,101159.09
2022-10-20T02:51:36.188Z,101161.63
2022-10-20T02:52:38.238Z,101162.50
2022-10-20T02:53:40.733Z,101163.34
2022-10-20T02:54:42.310Z,101152.81
2022-10-20T02:55:45.820Z,101153.66
2022-10-20T02:56:47.427Z,101151.00
2022-10-20T02:57:50.930Z,101145.69
2022-10-20T02:58:52.532Z,101143.03
2022-10-20T02:59:55.080Z,101145.69
2022-10-20T03:00:57.949Z,101136.75
2022-10-20T03:02:00.883Z,101141.22
2022-10-20T03:03:03.108Z,101144.84
2022-10-20T03:04:06.069Z,101135.03
2022-10-20T03:05:08.507Z,101135.03
2022-10-20T03:06:13.207Z,101136.00
2022-10-20T03:07:14.882Z,101140.38
2022-10-20T03:08:18.071Z,101140.38
2022-10-20T03:09:19.633Z,101137.69
2022-10-20T03:10:22.138Z,101135.91
2022-10-20T03:11:25.288Z,101135.03
2022-10-20T03:12:30.141Z,101135.91
2022-10-20T03:13:33.749Z,101139.41
2022-10-20T03:14:36.299Z,101142.06
2022-10-20T03:15:38.359Z,101144.72
2022-10-20T03:16:42.177Z,101137.69
2022-10-20T03:17:49.806Z,101141.22
2022-10-20T03:18:52.342Z,101133.09
2022-10-20T03:19:53.864Z,101131.44
2022-10-20T03:20:56.308Z,101140.38
2022-10-20T03:21:57.856Z,101135.03
2022-10-20T03:23:00.695Z,101131.44
2022-10-20T03:24:02.261Z,101134.91
2022-10-20T03:25:05.367Z,101122.47
2022-10-20T03:26:10.467Z,101128.63
2022-10-20T03:27:12.942Z,101125.97
2022-10-20T03:28:14.468Z,101124.16
2022-10-20T03:29:17.129Z,101118.84
2022-10-20T03:30:19.174Z,101118.84
2022-10-20T03:31:21.998Z,101120.53
2022-10-20T03:32:24.957Z,101111.56
2022-10-20T03:33:27.867Z,101116.88
2022-10-20T03:34:29.410Z,101116.78
2022-10-20T03:35:32.084Z,101117.63
2022-10-20T03:36:34.960Z,101115.81
2022-10-20T03:37:36.642Z,101114.97
2022-10-20T03:38:41.711Z,101111.31
2022-10-20T03:39:43.215Z,101118.34
2022-10-20T03:40:45.697Z,101107.69
2022-10-20T03:41:47.364Z,101111.22
2022-10-20T03:42:49.892Z,101100.56
2022-10-20T03:43:51.562Z,101104.09
2022-10-20T03:44:54.045Z,101099.63
2022-10-20T03:46:02.375Z,101105.75
2022-10-20T03:47:05.076Z,101108.41
2022-10-20T03:48:08.445Z,101105.75
2022-10-20T03:49:10.959Z,101112.78
2022-10-20T03:50:16.478Z,101097.78
2022-10-20T03:51:19.066Z,101106.59
2022-10-20T03:52:20.636Z,101100.44
2022-10-20T03:53:23.132Z,101103.94
2022-10-20T03:54:24.923Z,101105.75
2022-10-20T03:55:27.447Z,101103.09
2022-10-20T03:56:29.033Z,101105.75
2022-10-20T03:57:31.671Z,101095.84
2022-10-20T03:58:33.230Z,101089.69
2022-10-20T03:59:35.780Z,101087.88
2022-10-20T04:00:37.507Z,101089.56
2022-10-20T04:01:40.021Z,101081.72
2022-10-20T04:02:43.571Z,101084.25
2022-10-20T04:03:47.354Z,101089.69
2022-10-20T04:04:49.048Z,101079.91
2022-10-20T04:05:51.773Z,101069.38
2022-10-20T04:06:53.303Z,101074.69
2022-10-20T04:07:55.800Z,101082.56
2022-10-20T04:08:57.394Z,101070.97
2022-10-20T04:10:02.067Z,101066.59
2022-10-20T04:11:04.158Z,101066.59
2022-10-20T04:12:06.958Z,101071.06
2022-10-20T04:13:09.339Z,101071.06
2022-10-20T04:14:12.013Z,101073.84
2022-10-20T04:15:13.688Z,101078.19
2022-10-20T04:16:16.183Z,101078.94
2022-10-20T04:17:17.721Z,101078.19
2022-10-20T04:18:20.206Z,101081.59
2022-10-20T04:19:23.103Z,101066.59
2022-10-20T04:20:25.672Z,101084.25
2022-10-20T04:21:27.192Z,101071.78
2022-10-20T04:22:30.116Z,101078.94
2022-10-20T04:23:31.647Z,101072.63
2022-10-20T04:24:34.148Z,101074.44
2022-10-20T04:25:35.659Z,101067.31
2022-10-20T04:26:38.169Z,101062.97
2022-10-20T04:27:40.394Z,101057.66
2022-10-20T04:28:43.148Z,101053.16
2022-10-20T04:29:44.654Z,101061.28
2022-10-20T04:30:47.850Z,101057.66
2022-10-20T04:31:49.433Z,101058.63
2022-10-20T04:32:51.981Z,101062.97
2022-10-20T04:33:53.489Z,101053.31
2022-10-20T04:34:58.349Z,101052.34
2022-10-20T04:36:00.558Z,101048.69
2022-10-20T04:37:06.344Z,101047.03
2022-10-20T04:38:08.029Z,101041.69
2022-10-20T04:39:10.665Z,101025.75
2022-10-20T04:40:13.355Z,101024.75
2022-10-20T04:41:14.956Z,101022.09
2022-10-20T04:42:17.543Z,101013.16
2022-10-20T04:43:19.049Z,101019.31
2022-10-20T04:44:21.538Z,101026.31
2022-10-20T04:45:23.066Z,101021.84
2022-10-20T04:46:26.606Z,101032.47
2022-10-20T04:47:31.754Z,101027.16
2022-10-20T04:48:34.352Z,101022.69
2022-10-20T04:49:37.084Z,101027.88
2022-10-20T04:50:39.941Z,101010.94
2022-10-20T04:51:42.689Z,101026.91
2022-10-20T04:52:44.491Z,101017.09
2022-10-20T04:53:47.680Z,101009.00
2022-10-20T04:54:49.966Z,101011.69
2022-10-20T04:55:55.444Z,101000.88
2022-10-20T04:56:57.214Z,101005.34
2022-10-20T04:57:59.762Z,101006.22
2022-10-20T04:59:01.580Z,101001.75
2022-10-20T05:00:05.761Z,101002.59
2022-10-20T05:01:10.014Z,101000.78
2022-10-20T05:02:12.617Z,100998.13
2022-10-20T05:03:14.117Z,100994.50
2022-10-20T05:04:20.878Z,100994.50
2022-10-20T05:05:22.462Z,100991.84
2022-10-20T05:06:28.238Z,100991.69
2022-10-20T05:07:30.298Z,100997.00
2022-10-20T05:08:32.804Z,100993.38
2022-10-20T05:09:34.481Z,100996.91
2022-10-20T05:10:39.998Z,100998.56
2022-10-20T05:11:43.037Z,100995.91
2022-10-20T05:12:44.660Z,100990.59
2022-10-20T05:13:47.710Z,100984.31
2022-10-20T05:14:50.259Z,100980.69
2022-10-20T05:15:52.211Z,100980.69
2022-10-20T05:16:54.761Z,100979.94
2022-10-20T05:17:56.286Z,100976.31
2022-10-20T05:18:58.934Z,100972.69
2022-10-20T05:20:00.778Z,100976.16
2022-10-20T05:21:09.741Z,100972.69
2022-10-20T05:22:14.584Z,100960.22
2022-10-20T05:23:16.258Z,100967.38
2022-10-20T05:24:21.454Z,100960.34
2022-10-20T05:25:36.041Z,100964.72
2022-10-20T05:26:39.546Z,100973.66
2022-10-20T05:27:41.088Z,100974.50
2022-10-20T05:28:45.548Z,100983.34
2022-10-20T05:29:47.109Z,100967.38
2022-10-20T05:30:49.698Z,100978.00
2022-10-20T05:31:51.233Z,100981.50
2022-10-20T05:32:53.705Z,100971.84
2022-10-20T05:33:56.765Z,100962.88
2022-10-20T05:34:59.375Z,100951.41
2022-10-20T05:36:06.164Z,100954.06
2022-10-20T05:37:08.769Z,100956.72
2022-10-20T05:38:11.674Z,100941.59
2022-10-20T05:39:14.216Z,100953.06
2022-10-20T05:40:15.883Z,100942.44
2022-10-20T05:41:21.177Z,100949.44
2022-10-20T05:42:23.774Z,100946.09
2022-10-20T05:43:25.337Z,100946.91
2022-10-20T05:44:27.895Z,100946.09
2022-10-20T05:45:29.440Z,100948.75
2022-10-20T05:46:33.817Z,100948.59
2022-10-20T05:47:35.549Z,100946.09
2022-10-20T05:48:42.852Z,100929.28
2022-10-20T05:49:44.775Z,100945.94
2022-10-20T05:50:47.392Z,100943.44
2022-10-20T05:51:49.542Z,100939.91
2022-10-20T05:52:52.114Z,100943.44
2022-10-20T05:53:57.448Z,100945.25
2022-10-20T05:55:00.319Z,100939.06
2022-10-20T05:56:05.464Z,100944.38
2022-10-20T05:57:07.912Z,100946.09
2022-10-20T05:58:09.557Z,100932.78
2022-10-20T05:59:12.552Z,100938.09
2022-10-20T06:00:15.908Z,100930.13
2022-10-20T06:01:23.453Z,100929.97
2022-10-20T06:02:25.160Z,100931.78
2022-10-20T06:03:28.402Z,100933.59
2022-10-20T06:04:31.894Z,100931.78
2022-10-20T06:05:33.711Z,100929.97
2022-10-20T06:06:37.115Z,100938.81
2022-10-20T06:07:38.802Z,100929.88
2022-10-20T06:08:41.753Z,100947.50
2022-10-20T06:09:45.533Z,100949.34
2022-10-20T06:10:49.114Z,100934.91
2022-10-20T06:11:52.984Z,100940.25
2022-10-20T06:12:54.649Z,100942.06
2022-10-20T06:13:57.696Z,100939.13
2022-10-20T06:15:01.056Z,100941.78
2022-10-20T06:16:04.187Z,100939.97
2022-10-20T06:17:06.812Z,100937.22
2022-10-20T06:18:08.353Z,100938.06
2022-10-20T06:19:11.549Z,100938.06
2022-10-20T06:20:13.123Z,100938.91
2022-10-20T06:21:17.820Z,100924.47
2022-10-20T06:22:20.426Z,100933.31
2022-10-20T06:23:21.976Z,100925.34
2022-10-20T06:24:24.527Z,100941.19
2022-10-20T06:25:27.609Z,100935.88
2022-10-20T06:26:32.796Z,100947.22
2022-10-20T06:27:35.364Z,100951.56
2022-10-20T06:28:38.272Z,100947.91
2022-10-20T06:29:40.818Z,100953.22
2022-10-20T06:30:42.382Z,100956.63
2022-10-20T06:31:47.631Z,100961.94
2022-10-20T06:32:53.764Z,100952.16
2022-10-20T06:33:57.240Z,100959.13
2022-10-20T06:34:59.987Z,100959.03
2022-10-20T06:36:02.670Z,100964.19
2022-10-20T06:37:05.120Z,100966.84
2022-10-20T06:38:06.641Z,100961.41
2022-10-20T06:39:12.234Z,100968.44
2022-10-20T06:40:13.804Z,100975.44
2022-10-20T06:41:18.857Z,100968.19
2022-10-20T06:42:20.445Z,100965.50
2022-10-20T06:43:23.128Z,100969.84
2022-10-20T06:44:25.717Z,100964.50
2022-10-20T06:45:27.320Z,100966.22
2022-10-20T06:46:32.954Z,100965.25
2022-10-20T06:47:35.998Z,100960.63
2022-10-20T06:48:37.817Z,100959.78
2022-10-20T06:49:40.314Z,100972.97
2022-10-20T06:50:41.840Z,100962.31
2022-10-20T06:51:44.565Z,100956.84
2022-10-20T06:52:46.266Z,100950.44
2022-10-20T06:53:49.353Z,100955.78
2022-10-20T06:54:52.856Z,100949.44
2022-10-20T06:55:58.328Z,100954.78
2022-10-20T06:57:02.123Z,100952.84
2022-10-20T06:58:03.706Z,100939.53
2022-10-20T06:59:06.304Z,100948.22
2022-10-20T07:00:09.267Z,100952.56
2022-10-20T07:01:14.555Z,100946.28
2022-10-20T07:02:16.367Z,100945.28
2022-10-20T07:03:18.942Z,100952.31
2022-10-20T07:04:21.468Z,100948.69
2022-10-20T07:05:23.115Z,100949.38
2022-10-20T07:06:29.621Z,100958.06
2022-10-20T07:07:31.307Z,100953.47
2022-10-20T07:08:36.180Z,100941.81
2022-10-20T07:09:39.100Z,100952.34
2022-10-20T07:10:41.359Z,100943.38
2022-10-20T07:11:46.145Z,100948.56
2022-10-20T07:12:48.980Z,100958.25
2022-10-20T07:13:52.104Z,100952.78
2022-10-20T07:14:53.689Z,100950.97
2022-10-20T07:15:56.804Z,100959.69
2022-10-20T07:16:59.420Z,100954.34
2022-10-20T07:18:01.284Z,100963.03
2022-10-20T07:19:05.247Z,100964.75
2022-10-20T07:20:07.678Z,100961.06
2022-10-20T07:21:14.047Z,100961.66
2022-10-20T07:22:15.753Z,100969.53
2022-10-20T07:23:18.680Z,100965.91
2022-10-20T07:24:21.155Z,100974.59
2022-10-20T07:25:22.693Z,100972.63
2022-10-20T07:26:27.702Z,100961.00
2022-10-20T07:27:30.247Z,100969.84
2022-10-20T07:28:35.212Z,100964.34
2022-10-20T07:29:38.394Z,100970.41
2022-10-20T07:30:40.718Z,100978.25
2022-10-20T07:31:44.791Z,100968.44
2022-10-20T07:32:46.329Z,100966.50
2022-10-20T07:34:06.801Z,100974.34
2022-10-20T07:35:12.133Z,100979.56
2022-10-20T07:36:15.389Z,100962.56
2022-10-20T07:37:17.869Z,100962.28
2022-10-20T07:38:19.434Z,100948.00
2022-10-20T07:39:22.018Z,100951.38
2022-10-20T07:41:31.573Z,100956.19
2022-10-20T07:42:33.078Z,100945.50
2022-10-20T07:43:37.763Z,100954.19
2022-10-20T07:44:50.249Z,100953.22
2022-10-20T07:45:51.809Z,100957.56
2022-10-20T07:46:54.683Z,100950.28
2022-10-20T07:47:57.649Z,100959.94
2022-10-20T07:49:22.738Z,100959.84
2022-10-20T07:50:23.328Z,100953.53
2022-10-20T07:51:28.611Z,100952.53
2022-10-20T07:52:31.478Z,100956.88
2022-10-20T07:53:34.149Z,100956.78
2022-10-20T07:54:36.772Z,100947.78
2022-10-20T07:55:39.355Z,100954.66
2022-10-20T07:56:44.579Z,100947.50
2022-10-20T07:57:47.733Z,100947.50
2022-10-20T07:58:50.661Z,100950.88
2022-10-20T07:59:53.255Z,100963.22
2022-10-20T08:00:54.776Z,100966.59
2022-10-20T08:01:59.582Z,100970.97
2022-10-20T08:03:02.533Z,100973.34
2022-10-20T08:04:04.464Z,100973.34
2022-10-20T08:05:07.423Z,100972.38
2022-10-20T08:06:09.097Z,100970.44
2022-10-20T08:07:11.935Z,100972.81
2022-10-20T08:08:13.486Z,100961.16
2022-10-20T08:09:15.987Z,100967.22
2022-10-20T08:10:18.823Z,100958.25
2022-10-20T08:11:20.439Z,100960.75
2022-10-20T08:12:22.912Z,100960.47
2022-10-20T08:13:24.703Z,100950.66
2022-10-20T08:14:31.876Z,100955.72
2022-10-20T08:15:35.535Z,100957.41
2022-10-20T08:16:39.561Z,100966.09
2022-10-20T08:17:42.404Z,100962.47
2022-10-20T08:18:52.901Z,100956.00
2022-10-20T08:21:15.564Z,100954.75
2022-10-20T08:22:19.342Z,100954.59
2022-10-20T08:23:23.061Z,100950.94
2022-10-20T08:24:24.688Z,100949.81
2022-10-20T08:25:28.389Z,100943.34
2022-10-20T08:26:31.071Z,100956.44
2022-10-20T08:27:33.581Z,100950.09
2022-10-20T08:28:35.511Z,100951.78
2022-10-20T08:29:40.201Z,100953.50
2022-10-20T08:30:42.993Z,100953.31
2022-10-20T08:31:44.793Z,100953.19
2022-10-20T08:32:51.324Z,100956.56
2022-10-20T08:33:53.941Z,100956.56
2022-10-20T08:34:57.274Z,100958.25
2022-10-20T08:36:02.902Z,100952.91
2022-10-20T08:37:05.662Z,100955.44
2022-10-20T08:38:08.457Z,100955.44
2022-10-20T08:39:10.216Z,100957.97
2022-10-20T08:40:17.322Z,100950.81
2022-10-20T08:41:23.029Z,100941.69
2022-10-20T08:42:26.031Z,100943.38
2022-10-20T08:43:29.688Z,100945.03
2022-10-20T08:44:34.908Z,100946.44
2022-10-20T08:45:41.315Z,100940.97
2022-10-20T08:46:43.062Z,100942.50
2022-10-20T08:47:48.313Z,100942.22
2022-10-20T08:48:52.774Z,100944.59
2022-10-20T08:49:54.849Z,100948.13
2022-10-20T08:50:57.759Z,100946.13
2022-10-20T08:52:01.288Z,100936.03
2022-10-20T08:53:04.323Z,100939.41
2022-10-20T08:54:13.644Z,100940.09
2022-10-20T08:55:24.767Z,100943.44
2022-10-20T08:56:30.257Z,100938.09
2022-10-20T08:57:36.535Z,100936.28
2022-10-20T08:58:43.417Z,100940.78
2022-10-20T08:59:45.137Z,100931.09
2022-10-20T09:00:55.839Z,100930.09
2022-10-20T09:02:01.560Z,100931.09
2022-10-20T09:03:14.671Z,100923.09
2022-10-20T09:04:19.951Z,100931.78
2022-10-20T09:05:27.797Z,100928.16
2022-10-20T09:06:29.728Z,100935.16
2022-10-20T09:07:36.066Z,100940.34
2022-10-20T09:08:40.358Z,100939.38
2022-10-20T09:09:42.319Z,100935.56
2022-10-20T09:10:49.207Z,100928.13
2022-10-20T09:11:52.478Z,100934.31
2022-10-20T09:12:55.605Z,100912.66
2022-10-20T09:13:58.844Z,100908.97
2022-10-20T09:15:01.208Z,100918.53
2022-10-20T09:16:08.227Z,100905.03
2022-10-20T09:17:16.965Z,100906.72
2022-10-20T09:18:19.299Z,100903.06
2022-10-20T09:19:24.060Z,100912.75
2022-10-20T09:20:30.259Z,100905.59
2022-10-20T09:21:34.876Z,100917.13
2022-10-20T09:22:36.641Z,100910.94
2022-10-20T09:23:42.413Z,100906.44
2022-10-20T09:24:46.139Z,100919.78
2022-10-20T09:25:51.795Z,100911.78
2022-10-20T09:26:58.615Z,100912.63
2022-10-20T09:28:01.940Z,100909.78
2022-10-20T09:29:12.924Z,100914.84
2022-10-20T09:30:20.241Z,100913.72
2022-10-20T09:31:32.193Z,100905.44
2022-10-20T09:32:50.392Z,100900.50
2022-10-20T09:33:53.099Z,100902.88
2022-10-20T09:35:19.019Z,100903.56
2022-10-20T09:36:22.721Z,100899.03
2022-10-20T09:37:25.503Z,100898.75
2022-10-20T09:38:30.640Z,100895.09
2022-10-20T09:39:43.385Z,100898.47
2022-10-20T09:40:59.050Z,100896.63
2022-10-20T09:42:04.620Z,100904.34
2022-10-20T09:43:11.305Z,100909.56
2022-10-20T09:44:23.439Z,100910.22
2022-10-20T09:45:29.939Z,100904.59
2022-10-20T09:46:40.933Z,100899.78
2022-10-20T09:47:45.929Z,100901.34
2022-10-20T09:48:50.869Z,100908.06
2022-10-20T09:50:00.889Z,100901.72
2022-10-20T09:51:06.958Z,100898.06
2022-10-20T09:52:20.025Z,100901.59
2022-10-20T09:53:25.828Z,100894.38
2022-10-20T09:54:30.055Z,100900.75
2022-10-20T09:55:34.406Z,100905.25
2022-10-20T09:56:39.397Z,100900.88
2022-10-20T09:57:48.147Z,100897.38
2022-10-20T09:58:50.857Z,100900.22
2022-10-20T09:59:55.847Z,100902.88
2022-10-20T10:01:01.692Z,100915.25
2022-10-20T10:02:30.587Z,100936.66
2022-10-20T10:03:40.202Z,100938.31
2022-10-20T10:04:43.525Z,100944.19
2022-10-20T10:05:46.437Z,100949.25
2022-10-20T10:06:49.152Z,100953.63
2022-10-20T10:07:58.963Z,100933.75
2022-10-20T10:09:02.931Z,100931.94
2022-10-20T10:10:08.703Z,100923.91
2022-10-20T10:11:16.136Z,100921.22
2022-10-20T10:12:20.596Z,100927.44
2022-10-20T10:13:25.742Z,100934.59
2022-10-20T10:14:29.053Z,100930.22
2022-10-20T10:15:34.498Z,100933.91
2022-10-20T10:16:42.014Z,100928.72
2022-10-20T10:17:46.263Z,100928.88
2022-10-20T10:19:00.506Z,100918.44
2022-10-20T10:20:06.681Z,100915.09
2022-10-20T10:21:11.199Z,100931.13
2022-10-20T10:22:14.557Z,100933.97
2022-10-20T10:23:22.761Z,100926.78
2022-10-20T10:24:37.173Z,100940.00
2022-10-20T10:25:39.092Z,100935.50
2022-10-20T10:26:46.954Z,100938.56
2022-10-20T10:28:00.433Z,100939.41
2022-10-20T10:29:03.909Z,100938.25
2022-10-20T10:30:28.626Z,100947.84
2022-10-20T10:31:33.831Z,100926.16
2022-10-20T10:32:46.610Z,100935.69
2022-10-20T10:33:50.958Z,100936.22
2022-10-20T10:35:08.855Z,100935.09
2022-10-20T10:36:29.171Z,100934.78
2022-10-20T10:37:34.986Z,100921.97
2022-10-20T10:38:37.795Z,100935.88
2022-10-20T10:39:41.066Z,100934.88
2022-10-20T10:40:53.683Z,100926.56
2022-10-20T10:42:09.324Z,100934.97
2022-10-20T10:43:29.677Z,100930.16
2022-10-20T10:44:46.256Z,100928.88
2022-10-20T10:45:53.502Z,100918.69
2022-10-20T10:47:08.327Z,100921.06
2022-10-20T10:48:27.204Z,100918.22
2022-10-20T10:49:53.934Z,100905.69
2022-10-20T10:50:59.270Z,100918.75
2022-10-20T10:52:15.975Z,100913.41
2022-10-20T10:53:33.821Z,100918.75
2022-10-20T10:54:50.779Z,100913.56
2022-10-20T10:56:00.300Z,100907.69
2022-10-20T10:57:12.694Z,100909.53
2022-10-20T10:58:26.997Z,100907.28
2022-10-20T10:59:34.522Z,100895.25
2022-10-20T11:00:45.997Z,100900.91
2022-10-20T11:02:01.515Z,100886.81
2022-10-20T11:03:17.656Z,100881.78
2022-10-20T11:04:49.855Z,100877.56
2022-10-20T11:06:09.714Z,100877.72
2022-10-20T11:07:24.053Z,100880.38
2022-10-20T11:08:50.396Z,100877.72
2022-10-20T11:10:06.573Z,100888.41
2022-10-20T11:11:25.200Z,100887.72
2022-10-20T11:12:46.857Z,100893.38
2022-10-20T11:13:55.915Z,100893.69
2022-10-20T11:15:15.688Z,100893.81
2022-10-20T11:16:38.134Z,100896.81
2022-10-20T11:17:50.935Z,100892.59
2022-10-20T11:19:17.680Z,100890.91
2022-10-20T11:20:31.200Z,100898.41
2022-10-20T11:21:40.077Z,100895.19
2022-10-20T11:22:53.228Z,100897.19
2022-10-20T11:24:21.229Z,100901.97
2022-10-20T11:25:31.251Z,100903.25
2022-10-20T11:26:36.152Z,100905.09
2022-10-20T11:27:40.482Z,100912.28
2022-10-20T11:28:46.591Z,100918.63
2022-10-20T11:29:52.475Z,100910.91
2022-10-20T11:30:55.344Z,100916.38
2022-10-20T11:32:09.252Z,100920.19
2022-10-20T11:33:15.618Z,100922.19
2022-10-20T11:34:28.549Z,100915.16
2022-10-20T11:35:41.110Z,100917.28
2022-10-20T11:36:46.616Z,100914.91
2022-10-20T11:37:55.263Z,100907.19
2022-10-20T11:38:58.058Z,100906.63
2022-10-20T11:40:14.758Z,100907.78
2022-10-20T11:41:23.719Z,100913.13
2022-10-20T11:42:33.258Z,100906.25
2022-10-20T11:43:40.989Z,100908.22
2022-10-20T11:44:47.300Z,100901.34
2022-10-20T11:45:54.464Z,100910.31
2022-10-20T11:47:01.943Z,100912.16
2022-10-20T11:48:14.691Z,100916.81
2022-10-20T11:49:17.842Z,100910.78
2022-10-20T11:50:19.958Z,100916.25
2022-10-20T11:51:54.379Z,100910.19
2022-10-20T11:53:20.058Z,100912.03
2022-10-20T11:54:41.496Z,100912.31
2022-10-20T11:56:10.541Z,100917.50
2022-10-20T11:57:25.027Z,100926.53
2022-10-20T11:58:47.725Z,100913.16
2022-10-20T12:00:11.986Z,100910.78
2022-10-20T12:01:31.565Z,100917.78
2022-10-20T12:02:59.438Z,100930.19
2022-10-20T12:04:25.250Z,100919.63
2022-10-20T12:05:49.153Z,100916.81
2022-10-20T12:07:33.349Z,100915.13
2022-10-20T12:08:49.477Z,100904.59
2022-10-20T12:10:18.680Z,100903.06
2022-10-20T12:11:29.198Z,100891.69
2022-10-20T12:12:37.989Z,100885.66
2022-10-20T12:13:52.819Z,100885.66
2022-10-20T12:14:59.074Z,100886.63
2022-10-20T12:16:01.909Z,100881.44
2022-10-20T12:17:27.622Z,100882.25
2022-10-20T12:18:32.199Z,100882.25
2022-10-20T12:19:35.682Z,100871.59
2022-10-20T12:20:53.116Z,100855.56
2022-10-20T12:21:58.288Z,100852.88
2022-10-20T12:23:02.331Z,100844.88
2022-10-20T12:24:32.232Z,100848.56
2022-10-20T12:25:38.254Z,100842.50
2022-10-20T12:27:10.568Z,100833.66
2022-10-20T12:28:43.096Z,100841.81
2022-10-20T12:30:00.605Z,100851.66
2022-10-20T12:31:04.660Z,100848.00
2022-10-20T12:32:36.602Z,100843.50
2022-10-20T12:33:43.421Z,100839.84
2022-10-20T12:34:45.426Z,100836.31
2022-10-20T12:36:14.962Z,100827.19
2022-10-20T12:37:19.262Z,100829.69
2022-10-20T12:38:24.797Z,100820.53
2022-10-20T12:39:30.894Z,100822.94
2022-10-20T12:40:40.647Z,100821.81
2022-10-20T12:41:55.599Z,100831.06